Time;durP1;ratioP1;P1;durP2;ratioP2;P2;SDS_P1;SDS_P2;PMS_P1;PMS_P2;Temp;Humidity;BMP_temperature;BMP_pressure;BME280_temperature;BME280_humidity;BME280_pressure;Samples;Min_cycle;Max_cycle;Signal;HPM_P1;HPM_P2
2022/03/30 00:00:34;;;;;;;147.63;49.45;;;28.30;99.90;;;;;;5046159;28;20496;-63
2022/03/30 00:03:01;;;;;;;69.25;41.10;;;28.30;99.90;;;;;;5046216;28;20118;-63
2022/03/30 00:05:28;;;;;;;70.80;44.97;;;28.30;99.90;;;;;;5044607;28;20033;-63
2022/03/30 00:07:55;;;;;;;64.47;44.90;;;28.30;99.90;;;;;;5043370;28;20036;-63
2022/03/30 00:10:22;;;;;;;83.15;49.92;;;28.30;99.90;;;;;;5049748;28;20037;-63
2022/03/30 00:12:50;;;;;;;75.28;50.17;;;28.40;99.90;;;;;;5044529;28;20053;-62
2022/03/30 00:15:18;;;;;;;100.50;51.70;;;28.40;99.90;;;;;;5046888;28;20021;-63
2022/03/30 00:17:44;;;;;;;218.85;61.95;;;28.40;99.90;;;;;;5046231;28;20043;-62
2022/03/30 00:20:12;;;;;;;378.95;80.03;;;28.40;99.90;;;;;;5054562;28;20039;-62
2022/03/30 00:22:40;;;;;;;304.75;67.03;;;28.40;99.90;;;;;;5048575;28;20033;-62
2022/03/30 00:25:08;;;;;;;342.33;70.90;;;28.40;99.90;;;;;;5046481;28;20483;-62
2022/03/30 00:27:36;;;;;;;290.40;71.78;;;28.40;99.90;;;;;;5044687;28;20506;-62
2022/03/30 00:30:04;;;;;;;284.58;69.10;;;28.50;99.90;;;;;;5059429;28;20426;-62
2022/03/30 00:32:31;;;;;;;191.32;58.60;;;28.50;99.90;;;;;;5073862;28;20036;-61
2022/03/30 00:34:57;;;;;;;109.72;43.83;;;28.60;99.90;;;;;;5074315;28;20479;-62
2022/03/30 00:37:24;;;;;;;135.07;46.40;;;28.60;99.90;;;;;;5073852;28;20489;-62
2022/03/30 00:39:53;;;;;;;94.97;44.00;;;28.60;99.90;;;;;;5073454;28;20017;-62
2022/03/30 00:42:24;;;;;;;61.05;38.35;;;28.60;99.90;;;;;;5060451;28;20036;-62
2022/03/30 00:44:52;;;;;;;62.85;43.00;;;28.60;99.90;;;;;;5053909;28;20044;-62
2022/03/30 00:47:22;;;;;;;56.92;44.40;;;28.60;99.90;;;;;;5052462;28;20057;-62
2022/03/30 00:49:48;;;;;;;56.03;41.05;;;28.60;99.90;;;;;;5034449;28;20036;-62
2022/03/30 00:52:16;;;;;;;65.70;49.33;;;28.70;99.90;;;;;;5033677;28;20190;-62
2022/03/30 00:54:46;;;;;;;59.15;42.88;;;28.70;99.90;;;;;;5033106;28;20383;-62
2022/03/30 00:57:15;;;;;;;60.50;42.13;;;28.80;99.90;;;;;;5040767;28;20023;-62
2022/03/30 00:59:42;;;;;;;56.85;46.28;;;28.80;99.90;;;;;;5053631;28;20029;-62
2022/03/30 01:02:09;;;;;;;52.70;42.95;;;28.90;99.90;;;;;;5053759;28;20068;-64
2022/03/30 01:04:37;;;;;;;57.20;44.03;;;28.90;99.90;;;;;;5053365;28;20109;-61
2022/03/30 01:07:04;;;;;;;45.00;36.15;;;28.90;99.90;;;;;;5044948;28;20498;-62
2022/03/30 01:09:30;;;;;;;46.33;34.92;;;29.00;99.90;;;;;;5044888;28;20032;-62
2022/03/30 01:11:58;;;;;;;43.17;33.78;;;29.10;99.90;;;;;;5043809;28;20017;-62
2022/03/30 01:14:25;;;;;;;50.33;38.08;;;29.20;99.90;;;;;;5041421;28;20029;-61
2022/03/30 01:16:53;;;;;;;41.40;32.75;;;29.40;99.90;;;;;;5044851;28;20045;-62
2022/03/30 01:19:21;;;;;;;43.58;35.05;;;29.50;99.90;;;;;;5053573;28;20029;-62
2022/03/30 01:21:48;;;;;;;50.53;35.70;;;29.50;99.90;;;;;;5046941;28;20026;-62
2022/03/30 01:24:14;;;;;;;41.55;34.67;;;29.50;99.90;;;;;;5039779;28;20021;-61
2022/03/30 01:26:42;;;;;;;41.33;35.53;;;29.40;99.90;;;;;;5053246;28;20040;-62
2022/03/30 01:34:25;;;;;;;42.83;34.45;;;29.50;99.90;;;;;;5052701;28;20029;-62
2022/03/30 01:36:52;;;;;;;45.03;37.17;;;29.50;99.90;;;;;;5052858;28;20017;-62
2022/03/30 01:39:18;;;;;;;45.20;36.25;;;29.60;99.90;;;;;;5052902;28;20017;-62
2022/03/30 01:41:45;;;;;;;50.25;38.53;;;29.70;99.90;;;;;;5053200;28;20040;-62
2022/03/30 01:44:12;;;;;;;52.80;40.22;;;29.70;99.90;;;;;;5052617;28;20076;-62
2022/03/30 01:46:39;;;;;;;258.73;178.07;;;29.70;99.90;;;;;;5038394;28;20028;-63
2022/03/30 01:49:06;;;;;;;109.47;76.75;;;29.70;99.90;;;;;;5039896;28;20391;-64
2022/03/30 01:51:33;;;;;;;113.18;81.70;;;29.80;99.90;;;;;;5044991;28;20032;-63
2022/03/30 01:53:59;;;;;;;64.43;45.15;;;29.90;99.90;;;;;;5053363;28;20029;-62
2022/03/30 01:56:26;;;;;;;68.25;48.88;;;29.80;99.90;;;;;;5052333;28;20024;-62
2022/03/30 01:58:53;;;;;;;41.75;32.08;;;29.90;99.90;;;;;;5052588;28;20025;-63
2022/03/30 02:01:20;;;;;;;47.80;33.80;;;29.90;99.90;;;;;;5052741;28;20490;-63
2022/03/30 02:03:47;;;;;;;48.78;36.63;;;30.00;99.90;;;;;;5052514;28;20086;-63
2022/03/30 02:06:15;;;;;;;55.45;39.85;;;30.00;99.90;;;;;;5050652;28;20027;-63
2022/03/30 02:08:42;;;;;;;52.95;39.30;;;30.20;99.90;;;;;;5045733;28;20052;-62
2022/03/30 02:11:08;;;;;;;68.97;39.30;;;30.30;99.90;;;;;;5050659;28;20025;-63
2022/03/30 02:13:35;;;;;;;38.28;26.67;;;30.30;99.90;;;;;;5053445;28;20056;-63
2022/03/30 02:16:02;;;;;;;48.20;32.22;;;30.40;99.90;;;;;;5045114;28;20096;-63
2022/03/30 02:18:28;;;;;;;53.70;38.28;;;30.40;99.90;;;;;;5046042;28;20108;-63
2022/03/30 02:20:55;;;;;;;55.55;40.03;;;30.60;99.90;;;;;;5046997;28;20026;-63
2022/03/30 02:23:22;;;;;;;47.40;33.60;;;30.60;99.90;;;;;;5049759;28;20033;-66
2022/03/30 02:25:48;;;;;;;40.88;26.63;;;30.50;99.90;;;;;;5046074;28;20032;-65
2022/03/30 02:28:15;;;;;;;49.30;31.60;;;30.50;99.90;;;;;;5049030;28;20025;-63
2022/03/30 02:30:42;;;;;;;34.95;24.67;;;30.50;99.90;;;;;;5044801;28;20108;-61
2022/03/30 02:33:08;;;;;;;40.25;27.20;;;30.60;99.90;;;;;;5047287;28;20099;-61
2022/03/30 02:35:35;;;;;;;43.40;31.88;;;30.70;99.90;;;;;;5048061;28;20029;-61
2022/03/30 02:38:02;;;;;;;36.33;24.73;;;30.80;99.90;;;;;;5044494;28;20017;-62
2022/03/30 02:40:29;;;;;;;26.08;18.40;;;30.90;99.90;;;;;;5045723;28;20029;-61
2022/03/30 02:42:55;;;;;;;35.45;26.30;;;31.20;99.90;;;;;;5055671;28;20039;-61
2022/03/30 02:45:22;;;;;;;34.65;24.10;;;31.20;99.90;;;;;;5054925;28;20086;-61
2022/03/30 02:50:19;;;;;;;29.33;19.67;;;31.30;99.90;;;;;;5046778;28;20024;-61
2022/03/30 02:52:45;;;;;;;20.45;16.38;;;31.40;99.90;;;;;;5047559;28;20057;-59
2022/03/30 02:55:12;;;;;;;17.60;14.25;;;31.50;99.90;;;;;;5050947;28;20091;-61
2022/03/30 02:57:40;;;;;;;17.67;13.05;;;31.50;99.90;;;;;;5047666;28;20379;-61
2022/03/30 03:00:08;;;;;;;22.95;15.40;;;31.60;99.90;;;;;;5046758;28;20491;-61
2022/03/30 03:02:36;;;;;;;24.30;16.10;;;31.60;99.90;;;;;;5048507;28;20379;-62
2022/03/30 03:05:03;;;;;;;20.27;15.75;;;31.70;99.90;;;;;;5045391;28;20438;-63
2022/03/30 03:07:29;;;;;;;20.85;15.90;;;31.70;99.90;;;;;;5048284;28;20403;-62
2022/03/30 03:09:56;;;;;;;42.47;31.55;;;31.60;99.90;;;;;;5049834;28;20044;-62
2022/03/30 03:12:23;;;;;;;47.55;35.83;;;31.60;99.90;;;;;;5046605;28;20108;-62
2022/03/30 03:14:49;;;;;;;38.53;31.10;;;31.60;99.90;;;;;;5045450;28;20489;-62
2022/03/30 03:17:16;;;;;;;38.05;27.35;;;31.60;99.90;;;;;;5045782;28;20052;-62
2022/03/30 03:19:43;;;;;;;35.90;28.20;;;31.60;99.90;;;;;;5047343;28;20487;-65
2022/03/30 03:22:10;;;;;;;150.77;122.85;;;31.60;99.90;;;;;;5043935;28;20037;-62
2022/03/30 03:24:36;;;;;;;24.25;17.95;;;31.70;99.90;;;;;;5048834;28;20283;-64
2022/03/30 03:27:03;;;;;;;50.20;36.53;;;31.80;99.90;;;;;;5050623;28;20498;-64
2022/03/30 03:29:30;;;;;;;49.60;41.78;;;31.80;99.90;;;;;;5054590;28;20111;-61
2022/03/30 03:31:57;;;;;;;25.60;17.10;;;31.90;99.90;;;;;;5046932;28;20056;-62
2022/03/30 03:34:23;;;;;;;22.00;17.92;;;32.00;99.90;;;;;;5042078;28;20033;-62
2022/03/30 03:36:50;;;;;;;20.80;15.73;;;32.10;99.90;;;;;;5055040;28;20025;-61
2022/03/30 03:39:18;;;;;;;22.23;17.70;;;32.20;99.90;;;;;;5041411;28;20032;-61
2022/03/30 03:41:45;;;;;;;21.02;16.05;;;32.20;99.90;;;;;;5053064;28;20079;-60
2022/03/30 03:44:11;;;;;;;21.02;16.25;;;32.20;99.90;;;;;;5043503;28;20041;-63
2022/03/30 03:46:38;;;;;;;21.88;16.23;;;32.20;99.90;;;;;;5052186;28;20111;-64
2022/03/30 03:49:05;;;;;;;20.58;15.77;;;32.30;99.90;;;;;;5054135;28;20039;-63
2022/03/30 03:51:32;;;;;;;22.40;16.48;;;32.30;99.90;;;;;;5050954;28;20084;-63
2022/03/30 03:53:59;;;;;;;23.70;15.98;;;32.20;99.90;;;;;;5050796;28;20044;-64
2022/03/30 03:56:25;;;;;;;21.23;17.42;;;32.30;99.90;;;;;;5048955;28;20033;-64
2022/03/30 03:58:52;;;;;;;24.52;16.63;;;32.40;99.90;;;;;;5050095;28;20024;-62
2022/03/30 04:01:19;;;;;;;25.50;17.35;;;32.40;99.90;;;;;;5052255;28;20041;-63
2022/03/30 04:03:45;;;;;;;25.90;16.35;;;32.40;99.90;;;;;;5045320;28;20156;-62
2022/03/30 04:06:12;;;;;;;21.48;18.13;;;32.50;99.90;;;;;;5042728;28;20079;-63
2022/03/30 04:08:39;;;;;;;22.10;16.58;;;32.40;99.90;;;;;;5043998;28;20014;-61
2022/03/30 04:11:05;;;;;;;31.25;18.30;;;32.40;99.90;;;;;;5044138;28;20271;-61
2022/03/30 04:13:32;;;;;;;31.98;19.35;;;32.30;99.90;;;;;;5053450;28;20028;-60
2022/03/30 04:15:59;;;;;;;40.00;20.38;;;32.30;99.90;;;;;;5051817;28;20025;-63
2022/03/30 04:18:25;;;;;;;23.13;16.17;;;32.20;99.90;;;;;;5052687;28;20025;-62
2022/03/30 04:20:52;;;;;;;28.20;17.85;;;32.20;99.90;;;;;;5053645;28;20025;-61
2022/03/30 04:23:19;;;;;;;22.70;16.00;;;32.20;99.90;;;;;;5043563;28;20043;-62
2022/03/30 04:25:46;;;;;;;28.92;17.98;;;32.40;99.90;;;;;;5045933;28;20581;-63
2022/03/30 04:28:17;;;;;;;21.90;16.88;;;32.60;99.90;;;;;;5051158;28;20033;-61
2022/03/30 04:30:44;;;;;;;23.05;17.52;;;32.60;99.90;;;;;;5045295;28;20042;-62
2022/03/30 04:33:11;;;;;;;22.15;17.55;;;32.60;99.90;;;;;;5042933;28;20023;-63
2022/03/30 04:35:38;;;;;;;22.92;17.83;;;32.80;99.50;;;;;;5048947;28;20110;-63
2022/03/30 04:38:08;;;;;;;26.42;17.02;;;32.80;98.90;;;;;;5050311;28;20024;-64
2022/03/30 04:40:35;;;;;;;25.13;18.55;;;32.80;98.60;;;;;;5043464;28;20045;-62
2022/03/30 04:43:02;;;;;;;28.58;19.13;;;32.70;99.00;;;;;;5048963;28;20025;-63
2022/03/30 04:45:29;;;;;;;22.95;16.42;;;32.60;99.70;;;;;;5048572;28;20040;-62
2022/03/30 04:47:56;;;;;;;22.90;18.30;;;32.60;99.30;;;;;;5043569;28;20032;-62
2022/03/30 04:50:23;;;;;;;22.52;17.90;;;32.70;98.50;;;;;;5041356;28;20132;-64
2022/03/30 04:52:51;;;;;;;29.15;17.92;;;32.80;97.60;;;;;;5048782;28;20035;-63
2022/03/30 04:55:19;;;;;;;22.80;16.77;;;32.90;96.80;;;;;;5048497;28;20028;-63
2022/03/30 04:57:46;;;;;;;21.85;16.58;;;32.90;96.40;;;;;;5052092;28;20536;-64
2022/03/30 05:00:13;;;;;;;29.00;19.02;;;32.90;97.20;;;;;;5053941;28;20401;-66
2022/03/30 05:02:41;;;;;;;23.20;16.92;;;32.90;96.80;;;;;;5052281;28;20094;-64
2022/03/30 05:05:09;;;;;;;22.30;16.65;;;33.10;95.60;;;;;;5042498;28;20021;-63
2022/03/30 05:07:37;;;;;;;36.53;24.75;;;33.20;95.20;;;;;;5047228;28;20032;-63
2022/03/30 05:10:05;;;;;;;21.27;15.95;;;33.20;94.20;;;;;;5047992;28;20025;-63
2022/03/30 05:12:32;;;;;;;22.15;17.63;;;33.20;94.20;;;;;;5049571;28;20029;-63
2022/03/30 05:14:59;;;;;;;21.92;15.07;;;33.20;94.50;;;;;;5053490;28;20033;-63
2022/03/30 05:17:26;;;;;;;17.08;14.27;;;33.20;94.20;;;;;;5053282;28;20044;-63
2022/03/30 05:19:52;;;;;;;25.13;17.02;;;33.30;94.00;;;;;;5053235;28;20036;-63
2022/03/30 05:22:19;;;;;;;22.17;15.00;;;33.40;93.40;;;;;;5053939;28;20053;-62
2022/03/30 05:24:46;;;;;;;22.70;14.32;;;33.50;92.90;;;;;;5044939;28;20057;-62
2022/03/30 05:27:13;;;;;;;19.33;13.85;;;33.50;91.40;;;;;;5050207;28;20182;-63
2022/03/30 05:29:40;;;;;;;27.55;14.88;;;33.60;91.50;;;;;;5053328;28;20044;-63
2022/03/30 05:32:07;;;;;;;20.77;16.00;;;33.60;92.40;;;;;;5052165;28;20060;-63
2022/03/30 05:34:34;;;;;;;22.08;15.55;;;33.60;92.10;;;;;;5047678;28;20061;-62
2022/03/30 05:37:01;;;;;;;22.33;14.10;;;33.60;92.30;;;;;;5051560;28;20028;-66
2022/03/30 05:39:27;;;;;;;17.08;14.25;;;33.70;91.80;;;;;;5050968;28;20075;-63
2022/03/30 05:41:54;;;;;;;18.20;15.38;;;33.70;90.80;;;;;;5041254;28;20029;-63
2022/03/30 05:44:21;;;;;;;23.35;15.63;;;33.80;90.80;;;;;;5054470;28;20045;-62
2022/03/30 05:46:48;;;;;;;24.40;15.88;;;33.90;91.00;;;;;;5056529;28;20027;-62
2022/03/30 05:49:16;;;;;;;21.98;15.57;;;34.00;90.80;;;;;;5053627;28;20115;-63
2022/03/30 05:51:42;;;;;;;20.52;15.23;;;34.10;90.20;;;;;;5055292;28;20023;-63
2022/03/30 05:54:09;;;;;;;25.60;15.52;;;34.20;89.40;;;;;;5053301;28;20291;-63
2022/03/30 05:59:15;;;;;;;20.63;13.98;;;34.30;87.20;;;;;;5052295;28;20028;-63
2022/03/30 06:01:42;;;;;;;20.00;15.15;;;34.20;82.40;;;;;;5053572;28;20017;-63
2022/03/30 06:04:09;;;;;;;22.23;13.77;;;34.10;86.00;;;;;;5051132;28;20067;-63
2022/03/30 06:06:35;;;;;;;20.55;14.40;;;34.30;84.70;;;;;;5055425;28;20495;-65
2022/03/30 06:09:07;;;;;;;20.45;14.52;;;34.30;84.50;;;;;;5054948;28;20024;-63
2022/03/30 06:11:34;;;;;;;19.15;13.40;;;34.30;86.00;;;;;;5054557;28;20487;-63
2022/03/30 06:14:01;;;;;;;26.10;12.80;;;34.40;85.50;;;;;;5055369;28;20033;-66
2022/03/30 06:16:28;;;;;;;23.38;13.43;;;34.40;82.70;;;;;;5054458;28;20495;-63
2022/03/30 06:18:55;;;;;;;22.98;12.93;;;34.50;81.90;;;;;;5054994;28;20033;-63
2022/03/30 06:21:22;;;;;;;24.55;16.60;;;34.60;82.10;;;;;;5052746;28;20100;-63
2022/03/30 06:23:50;;;;;;;19.23;12.25;;;34.60;82.60;;;;;;5056074;28;20475;-63
2022/03/30 06:26:16;;;;;;;79.00;38.42;;;34.70;80.40;;;;;;5055725;28;20029;-63
2022/03/30 06:28:43;;;;;;;51.75;12.25;;;34.60;82.50;;;;;;5055444;28;20033;-63
2022/03/30 06:31:13;;;;;;;47.15;10.98;;;34.10;86.00;;;;;;5055416;28;20033;-63
2022/03/30 06:33:39;;;;;;;36.95;12.32;;;33.50;87.90;;;;;;5055719;28;20087;-63
2022/03/30 06:36:06;;;;;;;23.70;11.05;;;33.00;89.70;;;;;;5055522;28;20036;-65
2022/03/30 06:38:33;;;;;;;28.52;10.57;;;32.60;90.10;;;;;;5041511;28;20029;-62
2022/03/30 06:40:59;;;;;;;61.00;26.77;;;32.40;89.20;;;;;;5054837;28;20029;-61
2022/03/30 06:43:26;;;;;;;48.42;17.50;;;32.10;93.90;;;;;;5054738;28;20132;-63
2022/03/30 06:45:53;;;;;;;33.80;13.77;;;31.70;97.70;;;;;;5052639;28;20029;-62
2022/03/30 06:48:20;;;;;;;32.00;13.43;;;31.40;98.60;;;;;;5051287;28;20506;-62
2022/03/30 06:50:49;;;;;;;28.13;15.52;;;31.10;99.70;;;;;;5054695;28;20055;-63
2022/03/30 06:53:15;;;;;;;30.20;15.75;;;30.90;99.90;;;;;;5051194;28;20063;-64
2022/03/30 06:55:42;;;;;;;27.75;15.95;;;30.80;99.90;;;;;;5052973;28;20028;-62
2022/03/30 06:58:09;;;;;;;19.88;14.18;;;30.50;99.90;;;;;;5055344;28;20110;-63
2022/03/30 07:00:36;;;;;;;20.70;13.20;;;30.40;99.90;;;;;;5040792;28;20048;-62
2022/03/30 07:03:02;;;;;;;21.85;13.02;;;30.40;99.90;;;;;;5055427;28;20102;-62
2022/03/30 07:05:31;;;;;;;24.05;12.05;;;30.50;99.90;;;;;;5055006;28;20044;-64
2022/03/30 07:10:36;;;;;;;16.83;10.63;;;30.50;99.90;;;;;;5053812;28;20051;-63
2022/03/30 07:13:03;;;;;;;25.67;10.57;;;30.50;99.90;;;;;;5055001;28;20021;-63
2022/03/30 07:15:30;;;;;;;15.73;8.25;;;30.50;99.90;;;;;;5065486;22;20056;-64
2022/03/30 07:17:58;;;;;;;16.00;8.13;;;30.40;99.90;;;;;;5050579;28;20036;-64
2022/03/30 07:20:27;;;;;;;17.52;7.75;;;30.30;99.90;;;;;;5054186;28;20467;-62
2022/03/30 07:22:55;;;;;;;15.63;8.80;;;30.30;99.90;;;;;;5053921;28;20045;-63
2022/03/30 07:25:22;;;;;;;13.48;7.68;;;30.30;99.90;;;;;;5050374;28;20029;-66
2022/03/30 07:27:52;;;;;;;12.55;8.38;;;30.40;99.90;;;;;;5053797;28;20067;-63
2022/03/30 07:30:21;;;;;;;13.90;6.80;;;30.50;99.90;;;;;;5053531;28;20017;-63
2022/03/30 07:32:49;;;;;;;9.27;6.75;;;30.60;99.90;;;;;;5052369;28;20035;-64
2022/03/30 07:35:18;;;;;;;14.90;8.75;;;30.50;99.90;;;;;;5069342;28;20033;-63
2022/03/30 07:37:46;;;;;;;12.30;8.77;;;30.60;99.90;;;;;;5054529;28;20100;-62
2022/03/30 07:40:18;;;;;;;18.83;9.13;;;30.50;99.90;;;;;;5054057;28;20033;-63
2022/03/30 07:42:47;;;;;;;14.15;8.88;;;30.50;99.90;;;;;;5053134;28;20028;-62
2022/03/30 07:45:14;;;;;;;19.65;10.15;;;30.50;99.90;;;;;;5054161;28;20033;-64
2022/03/30 07:47:40;;;;;;;20.83;11.98;;;30.60;99.90;;;;;;5053756;28;20123;-65
2022/03/30 07:50:09;;;;;;;20.10;12.68;;;30.70;99.90;;;;;;5053966;28;20033;-63
2022/03/30 07:52:36;;;;;;;24.38;15.38;;;30.80;99.90;;;;;;5053754;28;20029;-64
2022/03/30 07:55:05;;;;;;;21.20;12.32;;;30.80;99.90;;;;;;5053950;28;20051;-64
2022/03/30 07:57:31;;;;;;;18.70;13.07;;;30.70;99.90;;;;;;5054007;28;20052;-64
2022/03/30 08:00:00;;;;;;;21.58;13.05;;;30.70;99.90;;;;;;5053926;28;20118;-65
2022/03/30 08:02:27;;;;;;;17.10;11.88;;;30.70;99.90;;;;;;5054273;28;20036;-64
2022/03/30 08:04:55;;;;;;;17.13;11.85;;;30.70;99.90;;;;;;5053376;28;20151;-65
2022/03/30 08:07:22;;;;;;;19.98;13.48;;;30.60;99.90;;;;;;5053980;28;20029;-64
2022/03/30 08:09:49;;;;;;;42.53;18.92;;;30.60;99.90;;;;;;5053627;28;20040;-65
2022/03/30 08:12:16;;;;;;;17.95;12.73;;;30.70;99.90;;;;;;5053995;28;20110;-65
2022/03/30 08:14:44;;;;;;;21.13;12.70;;;30.70;99.90;;;;;;5053475;28;20025;-65
2022/03/30 08:17:11;;;;;;;20.42;12.32;;;30.70;99.90;;;;;;5054065;28;20364;-65
2022/03/30 08:19:39;;;;;;;24.13;15.05;;;30.70;99.90;;;;;;5053525;28;20037;-64
2022/03/30 08:24:46;;;;;;;24.75;18.20;;;30.70;99.90;;;;;;5069276;28;20120;-64
2022/03/30 08:27:17;;;;;;;89.43;69.68;;;30.80;99.90;;;;;;5053060;28;20033;-65
2022/03/30 08:29:45;;;;;;;112.75;87.85;;;30.80;99.90;;;;;;5043968;28;20025;-62
2022/03/30 08:32:13;;;;;;;26.33;18.33;;;30.80;99.90;;;;;;5053253;28;20064;-64
2022/03/30 08:34:42;;;;;;;24.20;15.45;;;30.70;99.90;;;;;;5051650;28;20440;-65
2022/03/30 08:37:09;;;;;;;32.15;15.18;;;30.60;99.90;;;;;;5053454;28;20037;-64
2022/03/30 08:39:36;;;;;;;22.38;16.85;;;30.60;99.90;;;;;;5053124;28;20032;-65
2022/03/30 08:42:05;;;;;;;129.77;100.10;;;30.50;99.90;;;;;;5052944;28;20032;-66
2022/03/30 08:44:33;;;;;;;33.83;23.63;;;30.60;99.90;;;;;;5053185;28;20433;-65
2022/03/30 08:47:01;;;;;;;21.77;16.08;;;30.70;99.90;;;;;;5053262;28;20044;-66
2022/03/30 08:49:33;;;;;;;26.05;17.30;;;30.80;99.90;;;;;;5053151;28;20039;-67
2022/03/30 08:52:01;;;;;;;29.02;16.58;;;30.80;99.90;;;;;;5053087;28;20527;-65
2022/03/30 08:54:28;;;;;;;22.70;14.93;;;30.80;99.90;;;;;;5052756;28;20036;-66
2022/03/30 08:56:55;;;;;;;21.75;14.32;;;30.70;99.90;;;;;;5053453;28;20032;-63
2022/03/30 08:59:23;;;;;;;22.60;14.40;;;30.60;99.90;;;;;;5051903;28;20055;-62
2022/03/30 09:01:53;;;;;;;24.23;15.45;;;30.60;99.90;;;;;;5053597;28;20027;-63
2022/03/30 09:04:20;;;;;;;42.55;26.55;;;30.70;99.90;;;;;;5052997;28;20021;-64
2022/03/30 09:06:48;;;;;;;117.18;84.72;;;30.70;99.90;;;;;;5053233;28;20025;-64
2022/03/30 09:09:18;;;;;;;123.43;82.53;;;30.70;99.90;;;;;;5053118;28;20502;-67
2022/03/30 09:11:56;;;;;;;76.45;50.72;;;30.70;99.90;;;;;;5052805;28;20039;-65
2022/03/30 09:14:26;;;;;;;78.90;49.95;;;30.70;99.90;;;;;;5053663;28;20029;-64
2022/03/30 09:16:56;;;;;;;86.25;56.13;;;30.70;99.90;;;;;;5055377;28;20075;-64
2022/03/30 09:19:23;;;;;;;77.05;52.38;;;30.70;99.90;;;;;;5046144;28;20502;-64
2022/03/30 09:21:54;;;;;;;86.68;55.55;;;30.70;99.90;;;;;;5056801;28;20060;-67
2022/03/30 09:24:34;;;;;;;89.88;57.17;;;30.60;99.90;;;;;;5056423;28;20037;-64
2022/03/30 09:27:02;;;;;;;71.30;44.80;;;30.60;99.90;;;;;;5056935;28;20043;-66
2022/03/30 09:29:31;;;;;;;84.43;58.30;;;30.70;99.90;;;;;;5056817;28;20076;-67
2022/03/30 09:32:03;;;;;;;90.72;56.80;;;30.60;99.90;;;;;;5056862;28;20056;-65
2022/03/30 09:34:34;;;;;;;;;;;30.60;99.90;;;;;;5057352;28;20029;-64
2022/03/30 09:37:01;;;;;;;131.02;82.82;;;30.60;99.90;;;;;;5056568;28;19912;-67
2022/03/30 09:39:35;;;;;;;109.45;72.85;;;30.50;99.90;;;;;;5056416;28;20059;-64
2022/03/30 09:42:04;;;;;;;82.93;57.05;;;30.50;99.90;;;;;;5056504;28;20533;-65
2022/03/30 09:44:44;;;;;;;75.90;49.88;;;30.50;99.90;;;;;;5050415;28;20111;-65
2022/03/30 09:47:10;;;;;;;94.18;60.47;;;30.40;99.90;;;;;;5056355;28;20482;-64
2022/03/30 09:49:46;;;;;;;72.68;48.72;;;30.50;99.90;;;;;;5051953;28;20029;-64
2022/03/30 09:52:20;;;;;;;90.75;55.80;;;30.40;99.90;;;;;;5056472;28;20037;-64
2022/03/30 09:54:51;;;;;;;79.45;50.65;;;30.40;99.90;;;;;;5053136;28;20024;-65
2022/03/30 09:57:20;;;;;;;87.23;56.63;;;30.50;99.90;;;;;;5056564;28;20395;-65
2022/03/30 10:00:00;;;;;;;82.13;51.38;;;30.50;99.90;;;;;;5056054;28;20017;-65
2022/03/30 10:02:30;;;;;;;90.80;57.35;;;30.50;99.90;;;;;;5054574;28;20115;-65
2022/03/30 10:04:57;;;;;;;86.38;55.15;;;30.50;99.90;;;;;;5055966;28;20075;-66
2022/03/30 10:07:23;;;;;;;123.65;78.70;;;30.50;99.90;;;;;;5051869;28;20024;-65
2022/03/30 10:09:51;;;;;;;121.15;77.30;;;30.50;99.90;;;;;;5055004;28;20036;-68
2022/03/30 10:12:19;;;;;;;88.43;59.22;;;30.40;99.90;;;;;;5050619;28;20038;-65
2022/03/30 10:14:48;;;;;;;90.30;54.50;;;30.30;99.90;;;;;;5055424;28;20017;-65
2022/03/30 10:17:16;;;;;;;83.10;53.15;;;30.40;99.90;;;;;;5055566;28;20032;-65
2022/03/30 10:19:44;;;;;;;83.95;55.33;;;30.40;99.90;;;;;;5053187;28;20029;-65
2022/03/30 10:22:14;;;;;;;91.38;61.35;;;30.40;99.90;;;;;;5055967;28;20422;-64
2022/03/30 10:24:52;;;;;;;107.38;72.07;;;30.30;99.90;;;;;;5049177;28;20033;-66
2022/03/30 10:27:39;;;;;;;105.40;69.93;;;30.40;99.90;;;;;;5054969;28;20029;-65
2022/03/30 10:30:08;;;;;;;95.82;63.58;;;30.30;99.90;;;;;;5051336;28;20053;-67
2022/03/30 10:32:37;;;;;;;95.68;62.42;;;30.30;99.90;;;;;;5054992;28;20029;-68
2022/03/30 10:35:11;;;;;;;135.15;85.32;;;30.30;99.90;;;;;;5054906;28;20021;-66
2022/03/30 10:37:40;;;;;;;111.25;72.47;;;30.20;99.90;;;;;;5052891;28;20462;-66
2022/03/30 10:40:10;;;;;;;114.50;75.50;;;30.10;99.90;;;;;;5054588;28;20021;-69
2022/03/30 10:42:50;;;;;;;122.75;79.32;;;30.10;99.90;;;;;;5048604;28;20028;-64
2022/03/30 10:45:28;;;;;;;175.82;108.18;;;30.20;99.90;;;;;;5052097;28;20024;-64
2022/03/30 10:48:15;;;;;;;180.60;116.53;;;30.20;99.90;;;;;;5047645;28;20041;-66
2022/03/30 10:50:49;;;;;;;193.43;122.60;;;30.20;99.90;;;;;;5040056;28;20123;-63
2022/03/30 10:53:31;;;;;;;240.27;164.18;;;30.20;99.90;;;;;;5048955;28;20044;-63
2022/03/30 10:56:09;;;;;;;226.70;153.85;;;30.10;99.90;;;;;;5053200;28;20025;-63
2022/03/30 10:58:38;;;;;;;228.07;150.93;;;30.00;99.90;;;;;;5051939;28;20029;-65
2022/03/30 11:01:18;;;;;;;235.98;154.10;;;30.00;99.90;;;;;;5050423;28;20441;-63
2022/03/30 11:03:57;;;;;;;212.48;145.05;;;30.00;99.90;;;;;;5053266;28;20025;-65
2022/03/30 11:06:24;;;;;;;194.18;127.95;;;30.00;99.90;;;;;;5049421;28;20549;-67
2022/03/30 11:08:57;;;;;;;173.88;115.80;;;30.00;99.90;;;;;;5053889;28;20120;-65
2022/03/30 11:11:34;;;;;;;166.80;112.75;;;30.00;99.90;;;;;;5050175;28;20029;-67
2022/03/30 11:14:27;;;;;;;163.43;108.07;;;30.00;99.90;;;;;;5053997;28;20031;-66
2022/03/30 11:16:57;;;;;;;180.75;116.68;;;29.90;99.90;;;;;;5049496;28;22704;-65
2022/03/30 11:19:31;;;;;;;169.50;107.50;;;29.90;99.90;;;;;;5054160;28;20021;-65
2022/03/30 11:22:11;;;;;;;149.70;93.38;;;29.80;99.90;;;;;;5054504;28;20090;-63
2022/03/30 11:24:41;;;;;;;129.38;84.45;;;29.70;99.90;;;;;;5049689;28;20040;-68
2022/03/30 11:27:08;;;;;;;138.85;90.10;;;29.70;99.90;;;;;;5054190;28;20100;-65
2022/03/30 11:29:52;;;;;;;270.00;191.90;;;29.70;99.90;;;;;;5050436;28;20409;-64
2022/03/30 11:32:25;;;;;;;172.25;115.25;;;29.60;99.90;;;;;;5052890;28;20021;-65
2022/03/30 11:34:57;;;;;;;167.68;107.07;;;29.60;99.90;;;;;;5047995;28;20021;-65
2022/03/30 11:37:36;;;;;;;146.90;93.70;;;29.70;99.90;;;;;;5054117;28;20028;-64
2022/03/30 11:40:19;;;;;;;128.00;80.72;;;29.60;99.90;;;;;;5053006;28;20040;-65
2022/03/30 11:42:55;;;;;;;109.97;72.70;;;29.50;99.90;;;;;;5051952;28;20037;-65
2022/03/30 11:45:25;;;;;;;106.95;67.70;;;29.50;99.90;;;;;;5053509;28;20036;-65
2022/03/30 11:48:01;;;;;;;99.40;62.03;;;29.50;99.90;;;;;;5048417;28;20025;-65
2022/03/30 11:50:34;;;;;;;98.22;59.35;;;29.40;99.90;;;;;;5053226;28;20025;-66
2022/03/30 11:53:07;;;;;;;70.50;46.90;;;29.40;99.90;;;;;;5048759;28;20021;-65
2022/03/30 11:55:38;;;;;;;72.53;42.58;;;29.30;99.90;;;;;;5051360;28;20013;-66
2022/03/30 11:58:05;;;;;;;58.63;40.33;;;29.30;99.90;;;;;;5051415;28;20096;-65
2022/03/30 12:00:33;;;;;;;62.35;40.00;;;29.30;99.90;;;;;;5050363;28;20431;-66
2022/03/30 12:03:01;;;;;;;53.30;35.53;;;29.30;99.90;;;;;;5053935;28;20408;-64
2022/03/30 12:05:28;;;;;;;59.75;36.63;;;29.40;99.90;;;;;;5047910;28;20086;-64
2022/03/30 12:07:57;;;;;;;61.63;37.22;;;29.40;99.90;;;;;;5051265;28;20021;-64
2022/03/30 12:10:31;;;;;;;65.45;40.08;;;29.40;99.90;;;;;;5048126;28;20036;-63
2022/03/30 12:12:58;;;;;;;61.35;39.95;;;29.40;99.90;;;;;;5051835;28;20079;-64
2022/03/30 12:15:26;;;;;;;73.50;43.67;;;29.40;99.90;;;;;;5041710;28;20296;-65
2022/03/30 12:18:00;;;;;;;66.28;41.95;;;29.40;99.90;;;;;;5050255;28;20029;-65
2022/03/30 12:20:34;;;;;;;74.82;42.53;;;29.40;99.90;;;;;;5051298;28;20021;-65
2022/03/30 12:23:06;;;;;;;71.38;44.85;;;29.40;99.90;;;;;;5051228;28;20043;-65
2022/03/30 12:25:34;;;;;;;;;;;29.30;99.90;;;;;;5040957;28;20060;-68
2022/03/30 12:28:01;;;;;;;74.90;49.17;;;29.20;99.90;;;;;;5051501;28;19934;-65
2022/03/30 12:30:31;;;;;;;76.82;46.78;;;29.20;99.90;;;;;;5052785;28;20053;-67
2022/03/30 12:32:58;;;;;;;69.10;42.38;;;29.20;99.90;;;;;;5052771;28;20432;-65
2022/03/30 12:35:33;;;;;;;66.18;41.75;;;29.20;99.90;;;;;;5052506;28;20021;-66
2022/03/30 12:38:08;;;;;;;76.93;45.67;;;29.20;99.90;;;;;;5053139;28;20029;-65
2022/03/30 12:40:37;;;;;;;66.43;41.90;;;29.30;99.90;;;;;;5053157;28;20122;-65
2022/03/30 12:43:05;;;;;;;66.15;40.25;;;29.30;99.90;;;;;;5052934;28;20021;-65
2022/03/30 12:45:32;;;;;;;66.18;40.58;;;29.30;99.90;;;;;;5053149;28;20044;-65
2022/03/30 12:48:01;;;;;;;70.68;42.88;;;29.30;99.90;;;;;;5052945;28;20021;-65